sensor_id;sensor_type;location;lat;lon;timestamp;P1;durP1;ratioP1;P2;durP2;ratioP2
10096;SDS011;5087;42.662;23.466;2023-02-18T00:01:36;1.67;;;1.67;;
10096;SDS011;5087;42.662;23.466;2023-02-18T00:21:09;3.60;;;3.60;;
10096;SDS011;5087;42.662;23.466;2023-02-18T00:23:36;3.50;;;3.50;;
10096;SDS011;5087;42.662;23.466;2023-02-18T00:26:04;3.30;;;3.30;;
10096;SDS011;5087;42.662;23.466;2023-02-18T00:28:32;3.57;;;3.57;;
10096;SDS011;5087;42.662;23.466;2023-02-18T00:31:04;3.13;;;3.13;;
10096;SDS011;5087;42.662;23.466;2023-02-18T00:33:32;2.50;;;2.50;;
10096;SDS011;5087;42.662;23.466;2023-02-18T00:36:00;2.27;;;2.27;;
10096;SDS011;5087;42.662;23.466;2023-02-18T00:38:29;2.57;;;2.57;;
10096;SDS011;5087;42.662;23.466;2023-02-18T00:40:57;2.40;;;2.40;;
10096;SDS011;5087;42.662;23.466;2023-02-18T00:43:24;2.50;;;2.50;;
10096;SDS011;5087;42.662;23.466;2023-02-18T00:45:52;2.20;;;2.20;;
10096;SDS011;5087;42.662;23.466;2023-02-18T00:48:20;2.23;;;2.23;;
10096;SDS011;5087;42.662;23.466;2023-02-18T00:50:47;2.43;;;2.43;;
10096;SDS011;5087;42.662;23.466;2023-02-18T00:53:15;2.20;;;2.20;;
10096;SDS011;5087;42.662;23.466;2023-02-18T00:55:44;2.20;;;2.20;;
10096;SDS011;5087;42.662;23.466;2023-02-18T00:58:13;2.20;;;2.20;;
10096;SDS011;5087;42.662;23.466;2023-02-18T01:00:41;1.90;;;1.90;;
10096;SDS011;5087;42.662;23.466;2023-02-18T01:03:09;2.70;;;2.63;;
10096;SDS011;5087;42.662;23.466;2023-02-18T01:05:36;2.37;;;2.37;;
10096;SDS011;5087;42.662;23.466;2023-02-18T01:08:05;2.27;;;2.27;;
10096;SDS011;5087;42.662;23.466;2023-02-18T01:10:34;1.70;;;1.70;;
10096;SDS011;5087;42.662;23.466;2023-02-18T01:13:06;4.93;;;3.17;;
10096;SDS011;5087;42.662;23.466;2023-02-18T01:15:33;1.40;;;1.40;;
10096;SDS011;5087;42.662;23.466;2023-02-18T01:18:01;1.33;;;1.33;;
10096;SDS011;5087;42.662;23.466;2023-02-18T01:20:31;1.20;;;1.20;;
10096;SDS011;5087;42.662;23.466;2023-02-18T01:22:59;1.73;;;1.73;;
10096;SDS011;5087;42.662;23.466;2023-02-18T01:25:26;1.30;;;1.30;;
10096;SDS011;5087;42.662;23.466;2023-02-18T01:27:53;1.07;;;1.07;;
10096;SDS011;5087;42.662;23.466;2023-02-18T01:30:23;0.60;;;0.60;;
10096;SDS011;5087;42.662;23.466;2023-02-18T01:32:50;0.80;;;0.80;;
10096;SDS011;5087;42.662;23.466;2023-02-18T01:35:18;0.87;;;0.87;;
10096;SDS011;5087;42.662;23.466;2023-02-18T01:37:46;0.70;;;0.70;;
10096;SDS011;5087;42.662;23.466;2023-02-18T01:40:15;0.60;;;0.60;;
10096;SDS011;5087;42.662;23.466;2023-02-18T01:42:43;0.90;;;0.90;;
10096;SDS011;5087;42.662;23.466;2023-02-18T01:48:09;0.90;;;0.90;;
10096;SDS011;5087;42.662;23.466;2023-02-18T01:50:42;0.90;;;0.90;;
10096;SDS011;5087;42.662;23.466;2023-02-18T01:53:11;0.90;;;0.90;;
10096;SDS011;5087;42.662;23.466;2023-02-18T01:55:41;1.10;;;1.10;;
10096;SDS011;5087;42.662;23.466;2023-02-18T01:58:09;0.90;;;0.90;;
10096;SDS011;5087;42.662;23.466;2023-02-18T02:00:40;1.00;;;1.00;;
10096;SDS011;5087;42.662;23.466;2023-02-18T02:03:07;1.37;;;1.37;;
10096;SDS011;5087;42.662;23.466;2023-02-18T02:05:35;0.90;;;0.90;;
10096;SDS011;5087;42.662;23.466;2023-02-18T02:08:02;0.80;;;0.80;;
10096;SDS011;5087;42.662;23.466;2023-02-18T02:10:34;1.50;;;1.50;;
10096;SDS011;5087;42.662;23.466;2023-02-18T02:13:11;0.90;;;0.90;;
10096;SDS011;5087;42.662;23.466;2023-02-18T02:15:47;1.17;;;1.17;;
10096;SDS011;5087;42.662;23.466;2023-02-18T02:18:28;1.00;;;1.00;;
10096;SDS011;5087;42.662;23.466;2023-02-18T02:27:20;1.30;;;1.30;;
10096;SDS011;5087;42.662;23.466;2023-02-18T02:33:00;1.50;;;1.50;;
10096;SDS011;5087;42.662;23.466;2023-02-18T02:35:45;1.60;;;1.60;;
10096;SDS011;5087;42.662;23.466;2023-02-18T02:38:22;1.60;;;1.60;;
10096;SDS011;5087;42.662;23.466;2023-02-18T02:40:56;1.80;;;1.80;;
10096;SDS011;5087;42.662;23.466;2023-02-18T02:43:32;1.90;;;1.90;;
10096;SDS011;5087;42.662;23.466;2023-02-18T02:46:05;1.90;;;1.90;;
10096;SDS011;5087;42.662;23.466;2023-02-18T02:48:39;1.90;;;1.90;;
10096;SDS011;5087;42.662;23.466;2023-02-18T02:51:16;2.10;;;2.10;;
10096;SDS011;5087;42.662;23.466;2023-02-18T02:53:49;1.30;;;1.30;;
10096;SDS011;5087;42.662;23.466;2023-02-18T02:56:17;1.30;;;1.30;;
10096;SDS011;5087;42.662;23.466;2023-02-18T02:58:47;1.00;;;1.00;;
10096;SDS011;5087;42.662;23.466;2023-02-18T03:01:23;0.90;;;0.90;;
10096;SDS011;5087;42.662;23.466;2023-02-18T03:07:21;0.70;;;0.70;;
10096;SDS011;5087;42.662;23.466;2023-02-18T03:10:09;0.70;;;0.70;;
10096;SDS011;5087;42.662;23.466;2023-02-18T03:12:48;0.60;;;0.60;;
10096;SDS011;5087;42.662;23.466;2023-02-18T03:15:26;0.50;;;0.50;;
10096;SDS011;5087;42.662;23.466;2023-02-18T03:18:06;0.60;;;0.60;;
10096;SDS011;5087;42.662;23.466;2023-02-18T03:20:38;0.50;;;0.50;;
10096;SDS011;5087;42.662;23.466;2023-02-18T03:23:14;0.70;;;0.70;;
10096;SDS011;5087;42.662;23.466;2023-02-18T03:25:46;0.50;;;0.50;;
10096;SDS011;5087;42.662;23.466;2023-02-18T03:28:17;0.60;;;0.60;;
10096;SDS011;5087;42.662;23.466;2023-02-18T03:30:47;0.50;;;0.50;;
10096;SDS011;5087;42.662;23.466;2023-02-18T03:33:17;0.50;;;0.50;;
10096;SDS011;5087;42.662;23.466;2023-02-18T03:35:52;0.50;;;0.50;;
10096;SDS011;5087;42.662;23.466;2023-02-18T03:38:22;0.50;;;0.50;;
10096;SDS011;5087;42.662;23.466;2023-02-18T03:40:55;1.27;;;1.27;;
10096;SDS011;5087;42.662;23.466;2023-02-18T03:43:23;0.50;;;0.50;;
10096;SDS011;5087;42.662;23.466;2023-02-18T03:45:52;0.60;;;0.60;;
10096;SDS011;5087;42.662;23.466;2023-02-18T03:48:19;0.70;;;0.70;;
10096;SDS011;5087;42.662;23.466;2023-02-18T03:50:50;0.50;;;0.50;;
10096;SDS011;5087;42.662;23.466;2023-02-18T03:53:17;0.60;;;0.60;;
10096;SDS011;5087;42.662;23.466;2023-02-18T03:55:45;0.60;;;0.60;;
10096;SDS011;5087;42.662;23.466;2023-02-18T03:58:12;1.13;;;1.13;;
10096;SDS011;5087;42.662;23.466;2023-02-18T04:00:41;0.50;;;0.50;;
10096;SDS011;5087;42.662;23.466;2023-02-18T04:03:09;0.40;;;0.40;;
10096;SDS011;5087;42.662;23.466;2023-02-18T04:05:36;0.40;;;0.40;;
10096;SDS011;5087;42.662;23.466;2023-02-18T04:08:03;0.60;;;0.60;;
10096;SDS011;5087;42.662;23.466;2023-02-18T04:10:30;0.50;;;0.50;;
10096;SDS011;5087;42.662;23.466;2023-02-18T04:12:58;0.60;;;0.60;;
10096;SDS011;5087;42.662;23.466;2023-02-18T04:15:26;1.00;;;1.00;;
10096;SDS011;5087;42.662;23.466;2023-02-18T04:17:53;0.90;;;0.90;;
10096;SDS011;5087;42.662;23.466;2023-02-18T04:20:20;1.03;;;1.03;;
10096;SDS011;5087;42.662;23.466;2023-02-18T04:22:48;0.90;;;0.90;;
10096;SDS011;5087;42.662;23.466;2023-02-18T04:25:17;0.70;;;0.70;;
10096;SDS011;5087;42.662;23.466;2023-02-18T04:27:45;0.77;;;0.77;;
10096;SDS011;5087;42.662;23.466;2023-02-18T04:30:13;0.70;;;0.70;;
10096;SDS011;5087;42.662;23.466;2023-02-18T04:32:43;0.80;;;0.80;;
10096;SDS011;5087;42.662;23.466;2023-02-18T04:35:10;1.60;;;1.60;;
10096;SDS011;5087;42.662;23.466;2023-02-18T04:37:38;0.80;;;0.80;;
10096;SDS011;5087;42.662;23.466;2023-02-18T04:40:05;0.70;;;0.70;;
10096;SDS011;5087;42.662;23.466;2023-02-18T04:42:34;0.90;;;0.90;;
10096;SDS011;5087;42.662;23.466;2023-02-18T04:45:01;0.80;;;0.80;;
10096;SDS011;5087;42.662;23.466;2023-02-18T04:47:30;0.90;;;0.90;;
10096;SDS011;5087;42.662;23.466;2023-02-18T04:49:57;2.10;;;2.10;;
10096;SDS011;5087;42.662;23.466;2023-02-18T04:52:24;5.10;;;3.00;;
10096;SDS011;5087;42.662;23.466;2023-02-18T04:54:51;1.00;;;1.00;;
10096;SDS011;5087;42.662;23.466;2023-02-18T04:57:19;1.40;;;1.40;;
10096;SDS011;5087;42.662;23.466;2023-02-18T04:59:46;2.90;;;2.80;;
10096;SDS011;5087;42.662;23.466;2023-02-18T05:02:13;1.30;;;1.30;;
10096;SDS011;5087;42.662;23.466;2023-02-18T05:04:44;1.23;;;1.23;;
10096;SDS011;5087;42.662;23.466;2023-02-18T05:07:11;1.93;;;1.93;;
10096;SDS011;5087;42.662;23.466;2023-02-18T05:09:38;1.43;;;1.43;;
10096;SDS011;5087;42.662;23.466;2023-02-18T05:12:05;3.00;;;2.90;;
10096;SDS011;5087;42.662;23.466;2023-02-18T05:14:33;3.90;;;3.60;;
10096;SDS011;5087;42.662;23.466;2023-02-18T05:17:02;0.80;;;0.80;;
10096;SDS011;5087;42.662;23.466;2023-02-18T05:19:30;0.80;;;0.80;;
10096;SDS011;5087;42.662;23.466;2023-02-18T05:21:59;1.23;;;1.23;;
10096;SDS011;5087;42.662;23.466;2023-02-18T05:24:26;1.00;;;1.00;;
10096;SDS011;5087;42.662;23.466;2023-02-18T05:26:53;0.90;;;0.90;;
10096;SDS011;5087;42.662;23.466;2023-02-18T05:29:21;1.10;;;1.10;;
10096;SDS011;5087;42.662;23.466;2023-02-18T05:31:48;1.20;;;1.20;;
10096;SDS011;5087;42.662;23.466;2023-02-18T05:34:16;1.30;;;1.30;;
10096;SDS011;5087;42.662;23.466;2023-02-18T05:36:43;1.60;;;1.60;;
10096;SDS011;5087;42.662;23.466;2023-02-18T05:39:12;1.60;;;1.60;;
10096;SDS011;5087;42.662;23.466;2023-02-18T05:41:39;1.83;;;1.83;;
10096;SDS011;5087;42.662;23.466;2023-02-18T05:44:06;1.90;;;1.90;;
10096;SDS011;5087;42.662;23.466;2023-02-18T05:46:51;1.40;;;1.40;;
10096;SDS011;5087;42.662;23.466;2023-02-18T05:49:18;1.73;;;1.73;;
10096;SDS011;5087;42.662;23.466;2023-02-18T05:51:45;1.10;;;1.10;;
10096;SDS011;5087;42.662;23.466;2023-02-18T05:54:17;0.80;;;0.80;;
10096;SDS011;5087;42.662;23.466;2023-02-18T05:56:44;2.20;;;2.10;;
10096;SDS011;5087;42.662;23.466;2023-02-18T05:59:11;0.80;;;0.80;;
10096;SDS011;5087;42.662;23.466;2023-02-18T06:01:40;2.20;;;2.10;;
10096;SDS011;5087;42.662;23.466;2023-02-18T06:04:08;0.93;;;0.93;;
10096;SDS011;5087;42.662;23.466;2023-02-18T06:06:35;1.77;;;1.77;;
10096;SDS011;5087;42.662;23.466;2023-02-18T06:09:03;0.73;;;0.73;;
10096;SDS011;5087;42.662;23.466;2023-02-18T06:11:32;0.80;;;0.80;;
10096;SDS011;5087;42.662;23.466;2023-02-18T06:14:00;1.53;;;1.53;;
10096;SDS011;5087;42.662;23.466;2023-02-18T06:16:28;8.10;;;4.03;;
10096;SDS011;5087;42.662;23.466;2023-02-18T06:18:55;1.13;;;1.13;;
10096;SDS011;5087;42.662;23.466;2023-02-18T06:21:22;1.07;;;1.07;;
10096;SDS011;5087;42.662;23.466;2023-02-18T06:23:50;1.30;;;1.30;;
10096;SDS011;5087;42.662;23.466;2023-02-18T06:26:17;1.20;;;1.20;;
10096;SDS011;5087;42.662;23.466;2023-02-18T06:28:45;1.20;;;1.20;;
10096;SDS011;5087;42.662;23.466;2023-02-18T06:31:13;1.10;;;1.10;;
10096;SDS011;5087;42.662;23.466;2023-02-18T06:33:42;1.53;;;1.53;;
10096;SDS011;5087;42.662;23.466;2023-02-18T06:36:10;1.30;;;1.30;;
10096;SDS011;5087;42.662;23.466;2023-02-18T06:38:38;1.23;;;1.23;;
10096;SDS011;5087;42.662;23.466;2023-02-18T06:41:05;1.67;;;1.67;;
10096;SDS011;5087;42.662;23.466;2023-02-18T06:43:33;2.17;;;2.17;;
10096;SDS011;5087;42.662;23.466;2023-02-18T06:46:02;2.87;;;2.77;;
10096;SDS011;5087;42.662;23.466;2023-02-18T06:48:30;2.20;;;2.20;;
10096;SDS011;5087;42.662;23.466;2023-02-18T06:50:57;2.20;;;2.20;;
10096;SDS011;5087;42.662;23.466;2023-02-18T06:53:25;2.40;;;2.40;;
10096;SDS011;5087;42.662;23.466;2023-02-18T06:55:52;2.70;;;2.70;;
10096;SDS011;5087;42.662;23.466;2023-02-18T06:58:19;3.00;;;3.00;;
10096;SDS011;5087;42.662;23.466;2023-02-18T07:00:47;3.10;;;3.10;;
10096;SDS011;5087;42.662;23.466;2023-02-18T07:03:16;3.60;;;3.60;;
10096;SDS011;5087;42.662;23.466;2023-02-18T07:05:44;3.60;;;3.60;;
10096;SDS011;5087;42.662;23.466;2023-02-18T07:08:11;3.30;;;3.20;;
10096;SDS011;5087;42.662;23.466;2023-02-18T07:10:38;2.40;;;2.40;;
10096;SDS011;5087;42.662;23.466;2023-02-18T07:13:06;1.50;;;1.50;;
10096;SDS011;5087;42.662;23.466;2023-02-18T07:15:36;1.23;;;1.23;;
10096;SDS011;5087;42.662;23.466;2023-02-18T07:18:06;1.30;;;1.30;;
10096;SDS011;5087;42.662;23.466;2023-02-18T07:20:40;1.93;;;1.93;;
10096;SDS011;5087;42.662;23.466;2023-02-18T07:23:07;1.40;;;1.40;;
10096;SDS011;5087;42.662;23.466;2023-02-18T07:25:35;1.90;;;1.90;;
10096;SDS011;5087;42.662;23.466;2023-02-18T07:28:02;2.37;;;2.37;;
10096;SDS011;5087;42.662;23.466;2023-02-18T07:30:30;2.40;;;2.40;;
10096;SDS011;5087;42.662;23.466;2023-02-18T07:32:57;3.70;;;3.70;;
10096;SDS011;5087;42.662;23.466;2023-02-18T07:35:30;4.67;;;4.57;;
10096;SDS011;5087;42.662;23.466;2023-02-18T07:37:58;4.97;;;4.87;;
10096;SDS011;5087;42.662;23.466;2023-02-18T07:40:28;4.50;;;4.40;;
10096;SDS011;5087;42.662;23.466;2023-02-18T07:42:55;4.43;;;4.33;;
10096;SDS011;5087;42.662;23.466;2023-02-18T07:45:23;4.27;;;4.17;;
10096;SDS011;5087;42.662;23.466;2023-02-18T07:47:51;4.60;;;4.50;;
10096;SDS011;5087;42.662;23.466;2023-02-18T07:50:18;4.47;;;4.37;;
10096;SDS011;5087;42.662;23.466;2023-02-18T07:52:45;4.40;;;4.30;;
10096;SDS011;5087;42.662;23.466;2023-02-18T07:55:14;5.30;;;5.20;;
10096;SDS011;5087;42.662;23.466;2023-02-18T07:57:43;4.77;;;4.67;;
10096;SDS011;5087;42.662;23.466;2023-02-18T08:00:25;3.80;;;3.80;;
10096;SDS011;5087;42.662;23.466;2023-02-18T08:02:52;5.67;;;5.50;;
10096;SDS011;5087;42.662;23.466;2023-02-18T08:05:19;4.20;;;4.10;;
10096;SDS011;5087;42.662;23.466;2023-02-18T08:07:46;4.27;;;4.17;;
10096;SDS011;5087;42.662;23.466;2023-02-18T08:10:15;4.20;;;4.10;;
10096;SDS011;5087;42.662;23.466;2023-02-18T08:12:44;4.20;;;4.10;;
10096;SDS011;5087;42.662;23.466;2023-02-18T08:15:12;3.50;;;3.50;;
10096;SDS011;5087;42.662;23.466;2023-02-18T08:17:39;3.60;;;3.60;;
10096;SDS011;5087;42.662;23.466;2023-02-18T08:20:09;3.60;;;3.60;;
10096;SDS011;5087;42.662;23.466;2023-02-18T08:22:37;3.33;;;3.33;;
10096;SDS011;5087;42.662;23.466;2023-02-18T08:25:08;3.00;;;3.00;;
10096;SDS011;5087;42.662;23.466;2023-02-18T08:27:46;2.87;;;2.87;;
10096;SDS011;5087;42.662;23.466;2023-02-18T08:30:13;2.90;;;2.90;;
10096;SDS011;5087;42.662;23.466;2023-02-18T08:32:43;2.83;;;2.83;;
10096;SDS011;5087;42.662;23.466;2023-02-18T08:35:13;2.50;;;2.50;;
10096;SDS011;5087;42.662;23.466;2023-02-18T08:37:46;2.30;;;2.30;;
10096;SDS011;5087;42.662;23.466;2023-02-18T08:40:14;2.10;;;2.10;;
10096;SDS011;5087;42.662;23.466;2023-02-18T08:42:45;2.20;;;2.20;;
10096;SDS011;5087;42.662;23.466;2023-02-18T08:45:13;2.20;;;2.20;;
10096;SDS011;5087;42.662;23.466;2023-02-18T08:47:42;3.70;;;3.60;;
10096;SDS011;5087;42.662;23.466;2023-02-18T08:50:13;2.03;;;2.03;;
10096;SDS011;5087;42.662;23.466;2023-02-18T08:52:42;2.10;;;2.10;;
10096;SDS011;5087;42.662;23.466;2023-02-18T08:55:09;2.13;;;2.13;;
10096;SDS011;5087;42.662;23.466;2023-02-18T08:57:36;2.20;;;2.20;;
10096;SDS011;5087;42.662;23.466;2023-02-18T09:00:06;1.90;;;1.90;;
10096;SDS011;5087;42.662;23.466;2023-02-18T09:02:34;2.00;;;2.00;;
10096;SDS011;5087;42.662;23.466;2023-02-18T09:05:01;1.50;;;1.50;;
10096;SDS011;5087;42.662;23.466;2023-02-18T09:07:29;2.23;;;2.23;;
10096;SDS011;5087;42.662;23.466;2023-02-18T09:09:56;1.90;;;1.90;;
10096;SDS011;5087;42.662;23.466;2023-02-18T09:12:23;1.80;;;1.80;;
10096;SDS011;5087;42.662;23.466;2023-02-18T09:14:50;1.80;;;1.80;;
10096;SDS011;5087;42.662;23.466;2023-02-18T09:17:19;1.70;;;1.70;;
10096;SDS011;5087;42.662;23.466;2023-02-18T09:19:46;1.50;;;1.50;;
10096;SDS011;5087;42.662;23.466;2023-02-18T09:22:14;1.53;;;1.53;;
10096;SDS011;5087;42.662;23.466;2023-02-18T09:24:42;2.00;;;1.90;;
10096;SDS011;5087;42.662;23.466;2023-02-18T09:27:09;1.50;;;1.50;;
10096;SDS011;5087;42.662;23.466;2023-02-18T09:29:37;1.40;;;1.40;;
10096;SDS011;5087;42.662;23.466;2023-02-18T09:32:05;1.60;;;1.60;;
10096;SDS011;5087;42.662;23.466;2023-02-18T09:34:38;1.60;;;1.60;;
10096;SDS011;5087;42.662;23.466;2023-02-18T09:37:05;1.50;;;1.50;;
10096;SDS011;5087;42.662;23.466;2023-02-18T09:39:32;1.50;;;1.50;;
10096;SDS011;5087;42.662;23.466;2023-02-18T09:42:00;1.30;;;1.30;;
10096;SDS011;5087;42.662;23.466;2023-02-18T09:44:31;1.40;;;1.40;;
10096;SDS011;5087;42.662;23.466;2023-02-18T09:47:01;1.63;;;1.63;;
10096;SDS011;5087;42.662;23.466;2023-02-18T09:49:31;1.47;;;1.47;;
10096;SDS011;5087;42.662;23.466;2023-02-18T09:52:05;1.40;;;1.40;;
10096;SDS011;5087;42.662;23.466;2023-02-18T09:54:37;1.30;;;1.30;;
10096;SDS011;5087;42.662;23.466;2023-02-18T09:57:05;1.37;;;1.37;;
10096;SDS011;5087;42.662;23.466;2023-02-18T09:59:37;1.30;;;1.30;;
10096;SDS011;5087;42.662;23.466;2023-02-18T10:02:05;1.30;;;1.30;;
10096;SDS011;5087;42.662;23.466;2023-02-18T10:04:44;1.30;;;1.30;;
10096;SDS011;5087;42.662;23.466;2023-02-18T10:07:20;1.30;;;1.30;;
10096;SDS011;5087;42.662;23.466;2023-02-18T10:09:52;1.30;;;1.30;;
10096;SDS011;5087;42.662;23.466;2023-02-18T10:12:21;1.53;;;1.53;;
10096;SDS011;5087;42.662;23.466;2023-02-18T10:14:51;1.30;;;1.30;;
10096;SDS011;5087;42.662;23.466;2023-02-18T10:17:20;1.20;;;1.20;;
10096;SDS011;5087;42.662;23.466;2023-02-18T10:19:50;1.20;;;1.20;;
10096;SDS011;5087;42.662;23.466;2023-02-18T10:22:19;3.10;;;2.90;;
10096;SDS011;5087;42.662;23.466;2023-02-18T10:24:50;1.37;;;1.37;;
10096;SDS011;5087;42.662;23.466;2023-02-18T10:27:21;1.40;;;1.40;;
10096;SDS011;5087;42.662;23.466;2023-02-18T10:29:50;1.30;;;1.30;;
10096;SDS011;5087;42.662;23.466;2023-02-18T10:32:19;1.30;;;1.30;;
10096;SDS011;5087;42.662;23.466;2023-02-18T10:34:51;1.50;;;1.50;;
10096;SDS011;5087;42.662;23.466;2023-02-18T10:37:25;1.30;;;1.30;;
10096;SDS011;5087;42.662;23.466;2023-02-18T10:40:07;1.20;;;1.20;;
10096;SDS011;5087;42.662;23.466;2023-02-18T10:42:42;1.43;;;1.43;;
10096;SDS011;5087;42.662;23.466;2023-02-18T10:45:24;1.20;;;1.20;;
10096;SDS011;5087;42.662;23.466;2023-02-18T10:48:03;1.20;;;1.20;;
10096;SDS011;5087;42.662;23.466;2023-02-18T10:50:49;1.20;;;1.20;;
10096;SDS011;5087;42.662;23.466;2023-02-18T10:53:20;1.23;;;1.23;;
10096;SDS011;5087;42.662;23.466;2023-02-18T10:55:56;1.30;;;1.30;;
10096;SDS011;5087;42.662;23.466;2023-02-18T10:58:27;1.30;;;1.30;;
10096;SDS011;5087;42.662;23.466;2023-02-18T11:00:57;1.10;;;1.10;;
10096;SDS011;5087;42.662;23.466;2023-02-18T11:03:37;1.90;;;1.90;;
10096;SDS011;5087;42.662;23.466;2023-02-18T11:06:08;1.20;;;1.20;;
10096;SDS011;5087;42.662;23.466;2023-02-18T11:08:47;1.40;;;1.40;;
10096;SDS011;5087;42.662;23.466;2023-02-18T11:11:16;1.37;;;1.37;;
10096;SDS011;5087;42.662;23.466;2023-02-18T11:13:51;1.40;;;1.40;;
10096;SDS011;5087;42.662;23.466;2023-02-18T11:16:20;1.30;;;1.30;;
10096;SDS011;5087;42.662;23.466;2023-02-18T11:18:49;1.30;;;1.30;;
10096;SDS011;5087;42.662;23.466;2023-02-18T11:21:25;1.20;;;1.20;;
10096;SDS011;5087;42.662;23.466;2023-02-18T11:23:57;1.30;;;1.30;;
10096;SDS011;5087;42.662;23.466;2023-02-18T11:26:33;1.40;;;1.40;;
10096;SDS011;5087;42.662;23.466;2023-02-18T11:29:08;1.67;;;1.67;;
10096;SDS011;5087;42.662;23.466;2023-02-18T11:31:45;1.23;;;1.23;;
10096;SDS011;5087;42.662;23.466;2023-02-18T11:34:17;1.70;;;1.70;;
10096;SDS011;5087;42.662;23.466;2023-02-18T11:36:46;1.23;;;1.23;;
10096;SDS011;5087;42.662;23.466;2023-02-18T11:39:20;1.10;;;1.10;;
10096;SDS011;5087;42.662;23.466;2023-02-18T11:41:53;1.10;;;1.10;;
10096;SDS011;5087;42.662;23.466;2023-02-18T11:44:26;1.30;;;1.30;;
10096;SDS011;5087;42.662;23.466;2023-02-18T11:46:58;1.37;;;1.37;;
10096;SDS011;5087;42.662;23.466;2023-02-18T11:49:31;1.40;;;1.40;;
10096;SDS011;5087;42.662;23.466;2023-02-18T11:52:02;1.20;;;1.20;;
10096;SDS011;5087;42.662;23.466;2023-02-18T11:54:33;1.10;;;1.10;;
10096;SDS011;5087;42.662;23.466;2023-02-18T11:57:01;1.00;;;1.00;;
10096;SDS011;5087;42.662;23.466;2023-02-18T11:59:32;1.00;;;1.00;;
10096;SDS011;5087;42.662;23.466;2023-02-18T12:02:04;1.60;;;1.60;;
10096;SDS011;5087;42.662;23.466;2023-02-18T12:04:46;1.00;;;1.00;;
10096;SDS011;5087;42.662;23.466;2023-02-18T12:07:19;1.00;;;1.00;;
10096;SDS011;5087;42.662;23.466;2023-02-18T12:09:53;1.00;;;1.00;;
10096;SDS011;5087;42.662;23.466;2023-02-18T12:12:24;1.00;;;1.00;;
10096;SDS011;5087;42.662;23.466;2023-02-18T12:14:54;1.10;;;1.10;;
10096;SDS011;5087;42.662;23.466;2023-02-18T12:17:26;1.00;;;1.00;;
10096;SDS011;5087;42.662;23.466;2023-02-18T12:20:18;0.90;;;0.90;;
10096;SDS011;5087;42.662;23.466;2023-02-18T12:23:01;1.03;;;1.03;;
10096;SDS011;5087;42.662;23.466;2023-02-18T12:25:38;1.00;;;1.00;;
10096;SDS011;5087;42.662;23.466;2023-02-18T12:28:20;1.00;;;1.00;;
10096;SDS011;5087;42.662;23.466;2023-02-18T12:31:04;1.00;;;1.00;;
10096;SDS011;5087;42.662;23.466;2023-02-18T12:33:46;0.93;;;0.93;;
10096;SDS011;5087;42.662;23.466;2023-02-18T12:36:24;1.20;;;1.20;;
10096;SDS011;5087;42.662;23.466;2023-02-18T12:39:09;1.07;;;1.07;;
10096;SDS011;5087;42.662;23.466;2023-02-18T12:45:02;1.10;;;1.10;;
10096;SDS011;5087;42.662;23.466;2023-02-18T12:47:47;1.10;;;1.10;;
10096;SDS011;5087;42.662;23.466;2023-02-18T12:50:34;1.10;;;1.10;;
10096;SDS011;5087;42.662;23.466;2023-02-18T12:53:27;1.00;;;1.00;;
10096;SDS011;5087;42.662;23.466;2023-02-18T12:56:08;1.00;;;1.00;;
10096;SDS011;5087;42.662;23.466;2023-02-18T12:58:53;1.00;;;1.00;;
10096;SDS011;5087;42.662;23.466;2023-02-18T13:01:32;1.00;;;1.00;;
10096;SDS011;5087;42.662;23.466;2023-02-18T13:07:11;1.00;;;1.00;;
10096;SDS011;5087;42.662;23.466;2023-02-18T13:12:47;1.00;;;1.00;;
10096;SDS011;5087;42.662;23.466;2023-02-18T13:15:24;1.20;;;1.20;;
10096;SDS011;5087;42.662;23.466;2023-02-18T13:18:02;1.10;;;1.10;;
10096;SDS011;5087;42.662;23.466;2023-02-18T13:20:39;1.17;;;1.17;;
10096;SDS011;5087;42.662;23.466;2023-02-18T13:23:12;1.10;;;1.10;;
10096;SDS011;5087;42.662;23.466;2023-02-18T13:25:44;1.00;;;1.00;;
10096;SDS011;5087;42.662;23.466;2023-02-18T13:28:16;1.00;;;1.00;;
10096;SDS011;5087;42.662;23.466;2023-02-18T13:30:51;1.10;;;1.10;;
10096;SDS011;5087;42.662;23.466;2023-02-18T13:33:27;0.90;;;0.90;;
10096;SDS011;5087;42.662;23.466;2023-02-18T13:36:07;0.90;;;0.90;;
10096;SDS011;5087;42.662;23.466;2023-02-18T13:38:48;1.00;;;1.00;;
10096;SDS011;5087;42.662;23.466;2023-02-18T13:41:22;1.30;;;1.30;;
10096;SDS011;5087;42.662;23.466;2023-02-18T13:43:52;0.90;;;0.90;;
10096;SDS011;5087;42.662;23.466;2023-02-18T13:46:21;1.10;;;1.10;;
10096;SDS011;5087;42.662;23.466;2023-02-18T13:48:49;1.00;;;1.00;;
10096;SDS011;5087;42.662;23.466;2023-02-18T13:51:26;0.90;;;0.90;;
10096;SDS011;5087;42.662;23.466;2023-02-18T13:53:58;0.90;;;0.90;;
10096;SDS011;5087;42.662;23.466;2023-02-18T13:56:32;1.00;;;1.00;;
10096;SDS011;5087;42.662;23.466;2023-02-18T13:59:05;0.90;;;0.90;;
10096;SDS011;5087;42.662;23.466;2023-02-18T14:01:39;1.00;;;1.00;;
10096;SDS011;5087;42.662;23.466;2023-02-18T14:07:25;1.10;;;1.10;;
10096;SDS011;5087;42.662;23.466;2023-02-18T14:10:03;1.40;;;1.40;;
10096;SDS011;5087;42.662;23.466;2023-02-18T14:12:36;1.00;;;1.00;;
10096;SDS011;5087;42.662;23.466;2023-02-18T14:18:24;1.10;;;1.10;;
10096;SDS011;5087;42.662;23.466;2023-02-18T14:21:03;1.10;;;1.10;;
10096;SDS011;5087;42.662;23.466;2023-02-18T14:23:48;1.20;;;1.20;;
10096;SDS011;5087;42.662;23.466;2023-02-18T14:26:30;1.10;;;1.10;;
10096;SDS011;5087;42.662;23.466;2023-02-18T14:29:00;0.90;;;0.90;;
10096;SDS011;5087;42.662;23.466;2023-02-18T14:31:43;1.80;;;1.80;;
10096;SDS011;5087;42.662;23.466;2023-02-18T14:34:33;1.10;;;1.10;;
10096;SDS011;5087;42.662;23.466;2023-02-18T14:40:21;0.90;;;0.90;;
10096;SDS011;5087;42.662;23.466;2023-02-18T14:42:55;1.00;;;1.00;;
10096;SDS011;5087;42.662;23.466;2023-02-18T14:45:43;1.00;;;1.00;;
10096;SDS011;5087;42.662;23.466;2023-02-18T14:48:52;1.00;;;1.00;;
10096;SDS011;5087;42.662;23.466;2023-02-18T14:51:31;1.00;;;1.00;;
10096;SDS011;5087;42.662;23.466;2023-02-18T14:54:02;0.90;;;0.90;;
10096;SDS011;5087;42.662;23.466;2023-02-18T14:56:32;1.00;;;1.00;;
10096;SDS011;5087;42.662;23.466;2023-02-18T14:59:05;1.00;;;1.00;;
10096;SDS011;5087;42.662;23.466;2023-02-18T15:01:33;1.07;;;1.07;;
10096;SDS011;5087;42.662;23.466;2023-02-18T15:04:02;0.90;;;0.90;;
10096;SDS011;5087;42.662;23.466;2023-02-18T15:06:35;1.50;;;1.50;;
10096;SDS011;5087;42.662;23.466;2023-02-18T15:09:11;1.10;;;1.10;;
10096;SDS011;5087;42.662;23.466;2023-02-18T15:11:42;1.10;;;1.10;;
10096;SDS011;5087;42.662;23.466;2023-02-18T15:14:13;0.90;;;0.90;;
10096;SDS011;5087;42.662;23.466;2023-02-18T15:16:44;5.73;;;2.63;;
10096;SDS011;5087;42.662;23.466;2023-02-18T15:19:13;0.90;;;0.90;;
10096;SDS011;5087;42.662;23.466;2023-02-18T15:21:45;0.90;;;0.90;;
10096;SDS011;5087;42.662;23.466;2023-02-18T15:24:22;0.97;;;0.97;;
10096;SDS011;5087;42.662;23.466;2023-02-18T15:26:52;1.00;;;1.00;;
10096;SDS011;5087;42.662;23.466;2023-02-18T15:29:22;0.90;;;0.90;;
10096;SDS011;5087;42.662;23.466;2023-02-18T15:31:52;1.73;;;1.73;;
10096;SDS011;5087;42.662;23.466;2023-02-18T15:34:34;1.00;;;1.00;;
10096;SDS011;5087;42.662;23.466;2023-02-18T15:37:05;1.00;;;1.00;;
10096;SDS011;5087;42.662;23.466;2023-02-18T15:39:35;1.10;;;1.10;;
10096;SDS011;5087;42.662;23.466;2023-02-18T15:42:05;1.00;;;1.00;;
10096;SDS011;5087;42.662;23.466;2023-02-18T15:44:35;1.00;;;1.00;;
10096;SDS011;5087;42.662;23.466;2023-02-18T15:47:05;1.00;;;1.00;;
10096;SDS011;5087;42.662;23.466;2023-02-18T15:49:38;1.00;;;1.00;;
10096;SDS011;5087;42.662;23.466;2023-02-18T15:52:12;1.10;;;1.10;;
10096;SDS011;5087;42.662;23.466;2023-02-18T15:54:40;0.90;;;0.90;;
10096;SDS011;5087;42.662;23.466;2023-02-18T15:57:09;1.10;;;1.10;;
10096;SDS011;5087;42.662;23.466;2023-02-18T15:59:42;1.00;;;1.00;;
10096;SDS011;5087;42.662;23.466;2023-02-18T16:02:16;1.20;;;1.20;;
10096;SDS011;5087;42.662;23.466;2023-02-18T16:04:46;1.30;;;1.30;;